sensor_id;sensor_type;location;lat;lon;timestamp;pressure;altitude;pressure_sealevel;temperature;humidity
35226;BME280;21813;49.686;21.766;2022-10-31T00:00:06;98863.38;;;8.25;100.00
35226;BME280;21813;49.686;21.766;2022-10-31T00:02:53;98866.88;;;8.24;100.00
35226;BME280;21813;49.686;21.766;2022-10-31T00:05:20;98864.41;;;8.22;100.00
35226;BME280;21813;49.686;21.766;2022-10-31T00:07:45;98863.66;;;8.20;100.00
35226;BME280;21813;49.686;21.766;2022-10-31T00:10:12;98858.53;;;8.19;100.00
35226;BME280;21813;49.686;21.766;2022-10-31T00:12:37;98865.63;;;8.17;100.00
35226;BME280;21813;49.686;21.766;2022-10-31T00:15:05;98863.22;;;8.14;100.00
35226;BME280;21813;49.686;21.766;2022-10-31T00:17:31;98864.22;;;8.11;100.00
35226;BME280;21813;49.686;21.766;2022-10-31T00:20:00;98860.78;;;8.11;100.00
35226;BME280;21813;49.686;21.766;2022-10-31T00:22:25;98863.50;;;8.09;100.00
35226;BME280;21813;49.686;21.766;2022-10-31T00:24:57;98857.63;;;8.06;100.00
35226;BME280;21813;49.686;21.766;2022-10-31T00:27:23;98862.19;;;8.02;100.00
35226;BME280;21813;49.686;21.766;2022-10-31T00:29:49;98867.59;;;7.99;100.00
35226;BME280;21813;49.686;21.766;2022-10-31T00:32:14;98866.00;;;7.96;100.00
35226;BME280;21813;49.686;21.766;2022-10-31T00:34:42;98851.47;;;7.94;100.00
35226;BME280;21813;49.686;21.766;2022-10-31T00:37:08;98847.19;;;7.93;100.00
35226;BME280;21813;49.686;21.766;2022-10-31T00:39:37;98843.84;;;7.91;100.00
35226;BME280;21813;49.686;21.766;2022-10-31T00:42:03;98854.41;;;7.88;100.00
35226;BME280;21813;49.686;21.766;2022-10-31T00:44:29;98857.94;;;7.87;100.00
35226;BME280;21813;49.686;21.766;2022-10-31T00:46:55;98862.41;;;7.85;100.00
35226;BME280;21813;49.686;21.766;2022-10-31T00:49:21;98854.06;;;7.80;100.00
35226;BME280;21813;49.686;21.766;2022-10-31T00:51:49;98855.19;;;7.76;100.00
35226;BME280;21813;49.686;21.766;2022-10-31T00:54:21;98858.69;;;7.75;100.00
35226;BME280;21813;49.686;21.766;2022-10-31T00:57:00;98853.69;;;7.72;100.00
35226;BME280;21813;49.686;21.766;2022-10-31T00:59:32;98852.09;;;7.69;100.00
35226;BME280;21813;49.686;21.766;2022-10-31T01:02:08;98857.38;;;7.68;100.00
35226;BME280;21813;49.686;21.766;2022-10-31T01:21:07;98861.47;;;7.58;100.00
35226;BME280;21813;49.686;21.766;2022-10-31T01:24:19;98857.13;;;7.58;100.00
35226;BME280;21813;49.686;21.766;2022-10-31T01:27:29;98865.00;;;7.57;100.00
35226;BME280;21813;49.686;21.766;2022-10-31T01:30:14;98853.84;;;7.54;100.00
35226;BME280;21813;49.686;21.766;2022-10-31T01:38:52;98854.81;;;7.53;100.00
35226;BME280;21813;49.686;21.766;2022-10-31T01:41:54;98853.97;;;7.53;100.00
35226;BME280;21813;49.686;21.766;2022-10-31T01:48:12;98851.47;;;7.51;100.00
35226;BME280;21813;49.686;21.766;2022-10-31T01:51:35;98850.69;;;7.49;100.00
35226;BME280;21813;49.686;21.766;2022-10-31T01:54:45;98849.91;;;7.49;100.00
35226;BME280;21813;49.686;21.766;2022-10-31T01:57:37;98853.47;;;7.46;100.00
35226;BME280;21813;49.686;21.766;2022-10-31T02:00:33;98853.56;;;7.45;100.00
35226;BME280;21813;49.686;21.766;2022-10-31T02:03:32;98855.34;;;7.44;100.00
35226;BME280;21813;49.686;21.766;2022-10-31T02:06:24;98849.41;;;7.42;100.00
35226;BME280;21813;49.686;21.766;2022-10-31T02:08:52;98848.66;;;7.40;100.00
35226;BME280;21813;49.686;21.766;2022-10-31T02:11:18;98843.66;;;7.37;100.00
35226;BME280;21813;49.686;21.766;2022-10-31T02:13:45;98849.03;;;7.34;100.00
35226;BME280;21813;49.686;21.766;2022-10-31T02:16:12;98855.06;;;7.35;100.00
35226;BME280;21813;49.686;21.766;2022-10-31T02:35:17;98838.81;;;7.31;100.00
35226;BME280;21813;49.686;21.766;2022-10-31T02:37:49;98850.78;;;7.34;100.00
35226;BME280;21813;49.686;21.766;2022-10-31T02:40:19;98854.03;;;7.37;100.00
35226;BME280;21813;49.686;21.766;2022-10-31T02:42:49;98853.19;;;7.37;100.00
35226;BME280;21813;49.686;21.766;2022-10-31T02:47:43;98854.22;;;7.34;100.00
35226;BME280;21813;49.686;21.766;2022-10-31T02:50:19;98850.88;;;7.32;100.00
35226;BME280;21813;49.686;21.766;2022-10-31T02:52:57;98851.78;;;7.31;100.00
35226;BME280;21813;49.686;21.766;2022-10-31T02:57:56;98857.16;;;7.28;100.00
35226;BME280;21813;49.686;21.766;2022-10-31T03:00:24;98857.34;;;7.25;100.00
35226;BME280;21813;49.686;21.766;2022-10-31T03:03:01;98854.94;;;7.22;100.00
35226;BME280;21813;49.686;21.766;2022-10-31T03:10:31;98864.91;;;7.14;100.00
35226;BME280;21813;49.686;21.766;2022-10-31T03:13:10;98868.41;;;7.13;100.00
35226;BME280;21813;49.686;21.766;2022-10-31T03:15:39;98865.81;;;7.13;100.00
35226;BME280;21813;49.686;21.766;2022-10-31T03:18:13;98868.34;;;7.15;100.00
35226;BME280;21813;49.686;21.766;2022-10-31T03:20:44;98870.19;;;7.13;100.00
35226;BME280;21813;49.686;21.766;2022-10-31T03:23:13;98866.78;;;7.12;100.00
35226;BME280;21813;49.686;21.766;2022-10-31T03:25:40;98867.69;;;7.11;100.00
35226;BME280;21813;49.686;21.766;2022-10-31T03:28:08;98862.59;;;7.09;100.00
35226;BME280;21813;49.686;21.766;2022-10-31T03:30:36;98867.13;;;7.06;100.00
35226;BME280;21813;49.686;21.766;2022-10-31T03:33:06;98858.50;;;7.05;100.00
35226;BME280;21813;49.686;21.766;2022-10-31T03:35:34;98868.03;;;7.05;100.00
35226;BME280;21813;49.686;21.766;2022-10-31T03:38:02;98861.19;;;7.04;100.00
35226;BME280;21813;49.686;21.766;2022-10-31T03:40:28;98868.94;;;7.04;100.00
35226;BME280;21813;49.686;21.766;2022-10-31T03:42:59;98873.41;;;7.02;100.00
35226;BME280;21813;49.686;21.766;2022-10-31T03:45:26;98870.91;;;7.00;100.00
35226;BME280;21813;49.686;21.766;2022-10-31T03:48:17;98866.63;;;6.99;100.00
35226;BME280;21813;49.686;21.766;2022-10-31T04:06:45;98879.44;;;6.87;100.00
35226;BME280;21813;49.686;21.766;2022-10-31T04:09:45;98876.09;;;6.85;100.00
35226;BME280;21813;49.686;21.766;2022-10-31T04:12:13;98881.53;;;6.80;100.00
35226;BME280;21813;49.686;21.766;2022-10-31T04:14:43;98872.13;;;6.79;100.00
35226;BME280;21813;49.686;21.766;2022-10-31T04:17:13;98876.63;;;6.76;100.00
35226;BME280;21813;49.686;21.766;2022-10-31T04:19:40;98873.28;;;6.74;100.00
35226;BME280;21813;49.686;21.766;2022-10-31T04:22:30;98880.41;;;6.70;100.00
35226;BME280;21813;49.686;21.766;2022-10-31T04:24:54;98879.72;;;6.66;100.00
35226;BME280;21813;49.686;21.766;2022-10-31T04:27:21;98882.56;;;6.62;100.00
35226;BME280;21813;49.686;21.766;2022-10-31T04:29:46;98887.84;;;6.60;100.00
35226;BME280;21813;49.686;21.766;2022-10-31T04:32:14;98886.25;;;6.58;100.00
35226;BME280;21813;49.686;21.766;2022-10-31T04:34:39;98882.81;;;6.57;100.00
35226;BME280;21813;49.686;21.766;2022-10-31T04:37:06;98877.66;;;6.57;100.00
35226;BME280;21813;49.686;21.766;2022-10-31T04:39:32;98880.41;;;6.54;100.00
35226;BME280;21813;49.686;21.766;2022-10-31T04:41:58;98884.84;;;6.52;100.00
35226;BME280;21813;49.686;21.766;2022-10-31T04:44:24;98885.00;;;6.49;100.00
35226;BME280;21813;49.686;21.766;2022-10-31T04:46:51;98879.91;;;6.48;100.00
35226;BME280;21813;49.686;21.766;2022-10-31T04:49:17;98884.34;;;6.46;100.00
35226;BME280;21813;49.686;21.766;2022-10-31T04:51:43;98882.69;;;6.45;100.00
35226;BME280;21813;49.686;21.766;2022-10-31T04:54:08;98881.09;;;6.42;100.00
35226;BME280;21813;49.686;21.766;2022-10-31T04:59:15;98890.69;;;6.40;100.00
35226;BME280;21813;49.686;21.766;2022-10-31T05:01:44;98889.84;;;6.40;100.00
35226;BME280;21813;49.686;21.766;2022-10-31T05:07:38;98899.38;;;6.39;100.00
35226;BME280;21813;49.686;21.766;2022-10-31T05:15:59;98895.38;;;6.49;100.00
35226;BME280;21813;49.686;21.766;2022-10-31T05:18:28;98897.88;;;6.51;100.00
35226;BME280;21813;49.686;21.766;2022-10-31T05:23:29;98899.63;;;6.50;100.00
35226;BME280;21813;49.686;21.766;2022-10-31T05:25:57;98899.72;;;6.49;100.00
35226;BME280;21813;49.686;21.766;2022-10-31T05:28:22;98908.31;;;6.49;100.00
35226;BME280;21813;49.686;21.766;2022-10-31T05:30:49;98903.22;;;6.48;100.00
35226;BME280;21813;49.686;21.766;2022-10-31T05:33:15;98910.91;;;6.49;100.00
35226;BME280;21813;49.686;21.766;2022-10-31T05:35:47;98906.63;;;6.48;100.00
35226;BME280;21813;49.686;21.766;2022-10-31T05:38:37;98903.91;;;6.51;100.00
35226;BME280;21813;49.686;21.766;2022-10-31T05:41:28;98900.28;;;6.54;100.00
35226;BME280;21813;49.686;21.766;2022-10-31T05:43:54;98904.56;;;6.55;100.00
35226;BME280;21813;49.686;21.766;2022-10-31T05:46:20;98905.41;;;6.55;100.00
35226;BME280;21813;49.686;21.766;2022-10-31T05:48:56;98904.38;;;6.58;100.00
35226;BME280;21813;49.686;21.766;2022-10-31T05:59:46;98918.75;;;6.63;100.00
35226;BME280;21813;49.686;21.766;2022-10-31T06:08:27;98918.66;;;6.81;100.00
35226;BME280;21813;49.686;21.766;2022-10-31T06:11:18;98927.75;;;6.88;100.00
35226;BME280;21813;49.686;21.766;2022-10-31T06:13:45;98925.66;;;6.94;100.00
35226;BME280;21813;49.686;21.766;2022-10-31T06:16:10;98925.38;;;6.99;100.00
35226;BME280;21813;49.686;21.766;2022-10-31T06:18:37;98933.59;;;7.07;100.00
35226;BME280;21813;49.686;21.766;2022-10-31T06:21:03;98933.16;;;7.15;100.00
35226;BME280;21813;49.686;21.766;2022-10-31T06:23:49;98931.97;;;7.20;100.00
35226;BME280;21813;49.686;21.766;2022-10-31T06:26:28;98942.72;;;7.28;100.00
35226;BME280;21813;49.686;21.766;2022-10-31T06:31:59;98944.63;;;7.54;100.00
35226;BME280;21813;49.686;21.766;2022-10-31T06:34:25;98941.50;;;7.64;100.00
35226;BME280;21813;49.686;21.766;2022-10-31T06:36:51;98943.41;;;7.76;100.00
35226;BME280;21813;49.686;21.766;2022-10-31T06:39:16;98946.16;;;7.87;100.00
35226;BME280;21813;49.686;21.766;2022-10-31T06:41:48;98945.25;;;8.02;100.00
35226;BME280;21813;49.686;21.766;2022-10-31T06:44:17;98940.63;;;8.21;100.00
35226;BME280;21813;49.686;21.766;2022-10-31T06:46:43;98947.88;;;8.45;100.00
35226;BME280;21813;49.686;21.766;2022-10-31T06:49:10;98940.41;;;8.67;100.00
35226;BME280;21813;49.686;21.766;2022-10-31T06:51:36;98941.75;;;8.86;100.00
35226;BME280;21813;49.686;21.766;2022-10-31T06:54:05;98943.25;;;9.03;100.00
35226;BME280;21813;49.686;21.766;2022-10-31T06:56:31;98939.03;;;9.15;100.00
35226;BME280;21813;49.686;21.766;2022-10-31T06:58:58;98946.38;;;9.35;100.00
35226;BME280;21813;49.686;21.766;2022-10-31T07:01:23;98943.69;;;9.62;100.00
35226;BME280;21813;49.686;21.766;2022-10-31T07:03:57;98946.25;;;9.89;100.00
35226;BME280;21813;49.686;21.766;2022-10-31T07:06:23;98954.81;;;10.16;100.00
35226;BME280;21813;49.686;21.766;2022-10-31T07:08:50;98946.25;;;10.76;100.00
35226;BME280;21813;49.686;21.766;2022-10-31T07:11:16;98950.28;;;11.62;100.00
35226;BME280;21813;49.686;21.766;2022-10-31T07:13:42;98956.09;;;12.45;100.00
35226;BME280;21813;49.686;21.766;2022-10-31T07:16:08;98957.09;;;13.41;100.00
35226;BME280;21813;49.686;21.766;2022-10-31T07:18:41;98960.22;;;14.48;100.00
35226;BME280;21813;49.686;21.766;2022-10-31T07:21:10;98951.13;;;15.40;95.15
35226;BME280;21813;49.686;21.766;2022-10-31T07:23:36;98959.47;;;16.30;92.64
35226;BME280;21813;49.686;21.766;2022-10-31T07:26:02;98953.53;;;16.56;88.70
35226;BME280;21813;49.686;21.766;2022-10-31T07:28:29;98960.94;;;16.43;89.73
35226;BME280;21813;49.686;21.766;2022-10-31T07:30:57;98964.16;;;15.80;90.49
35226;BME280;21813;49.686;21.766;2022-10-31T07:33:24;98954.59;;;14.93;94.96
35226;BME280;21813;49.686;21.766;2022-10-31T07:35:56;98960.06;;;14.20;97.81
35226;BME280;21813;49.686;21.766;2022-10-31T07:38:22;98965.81;;;13.62;100.00
35226;BME280;21813;49.686;21.766;2022-10-31T07:40:54;98961.47;;;13.20;100.00
35226;BME280;21813;49.686;21.766;2022-10-31T07:43:25;98958.69;;;12.78;100.00
35226;BME280;21813;49.686;21.766;2022-10-31T07:45:53;98957.31;;;12.52;100.00
35226;BME280;21813;49.686;21.766;2022-10-31T07:48:20;98955.16;;;12.35;100.00
35226;BME280;21813;49.686;21.766;2022-10-31T07:50:45;98962.28;;;12.22;100.00
35226;BME280;21813;49.686;21.766;2022-10-31T07:53:12;98954.56;;;12.09;100.00
35226;BME280;21813;49.686;21.766;2022-10-31T07:55:44;98966.31;;;12.04;100.00
35226;BME280;21813;49.686;21.766;2022-10-31T07:58:15;98964.19;;;11.98;100.00
35226;BME280;21813;49.686;21.766;2022-10-31T08:00:42;98968.44;;;11.99;100.00
35226;BME280;21813;49.686;21.766;2022-10-31T08:03:12;98969.88;;;12.03;100.00
35226;BME280;21813;49.686;21.766;2022-10-31T08:08:48;98970.25;;;12.09;100.00
35226;BME280;21813;49.686;21.766;2022-10-31T08:11:20;98962.03;;;12.14;100.00
35226;BME280;21813;49.686;21.766;2022-10-31T08:13:49;98966.09;;;12.18;100.00
35226;BME280;21813;49.686;21.766;2022-10-31T08:16:26;98966.56;;;12.23;100.00
35226;BME280;21813;49.686;21.766;2022-10-31T08:18:52;98970.50;;;12.28;100.00
35226;BME280;21813;49.686;21.766;2022-10-31T08:21:23;98977.72;;;12.36;100.00
35226;BME280;21813;49.686;21.766;2022-10-31T08:23:48;98974.66;;;12.42;100.00
35226;BME280;21813;49.686;21.766;2022-10-31T08:26:24;98974.63;;;12.53;100.00
35226;BME280;21813;49.686;21.766;2022-10-31T08:28:50;98983.31;;;12.65;100.00
35226;BME280;21813;49.686;21.766;2022-10-31T08:31:16;98977.94;;;12.77;100.00
35226;BME280;21813;49.686;21.766;2022-10-31T08:33:55;98970.56;;;12.94;100.00
35226;BME280;21813;49.686;21.766;2022-10-31T08:36:36;98973.59;;;13.10;100.00
35226;BME280;21813;49.686;21.766;2022-10-31T08:42:01;98971.66;;;13.34;100.00
35226;BME280;21813;49.686;21.766;2022-10-31T08:44:26;98969.81;;;13.46;100.00
35226;BME280;21813;49.686;21.766;2022-10-31T08:47:21;98974.88;;;13.58;100.00
35226;BME280;21813;49.686;21.766;2022-10-31T08:49:47;98969.00;;;13.66;100.00
35226;BME280;21813;49.686;21.766;2022-10-31T08:52:30;98975.03;;;13.78;100.00
35226;BME280;21813;49.686;21.766;2022-10-31T08:54:56;98965.69;;;13.85;100.00
35226;BME280;21813;49.686;21.766;2022-10-31T08:57:23;98968.75;;;13.90;100.00
35226;BME280;21813;49.686;21.766;2022-10-31T08:59:48;98963.25;;;13.93;100.00
35226;BME280;21813;49.686;21.766;2022-10-31T09:02:26;98974.88;;;14.00;100.00
35226;BME280;21813;49.686;21.766;2022-10-31T09:04:52;98968.31;;;14.05;100.00
35226;BME280;21813;49.686;21.766;2022-10-31T09:07:19;98973.84;;;14.12;100.00
35226;BME280;21813;49.686;21.766;2022-10-31T09:09:45;98975.00;;;14.19;100.00
35226;BME280;21813;49.686;21.766;2022-10-31T09:12:11;98974.47;;;14.25;100.00
35226;BME280;21813;49.686;21.766;2022-10-31T09:14:36;98969.09;;;14.27;100.00
35226;BME280;21813;49.686;21.766;2022-10-31T09:17:03;98971.44;;;14.30;100.00
35226;BME280;21813;49.686;21.766;2022-10-31T09:19:28;98975.59;;;14.32;100.00
35226;BME280;21813;49.686;21.766;2022-10-31T09:21:56;98975.34;;;14.35;100.00
35226;BME280;21813;49.686;21.766;2022-10-31T09:24:22;98974.03;;;14.41;100.00
35226;BME280;21813;49.686;21.766;2022-10-31T09:26:49;98985.06;;;14.44;100.00
35226;BME280;21813;49.686;21.766;2022-10-31T09:29:16;98978.59;;;14.48;100.00
35226;BME280;21813;49.686;21.766;2022-10-31T09:31:42;98975.72;;;14.51;100.00
35226;BME280;21813;49.686;21.766;2022-10-31T09:34:08;98977.81;;;14.57;100.00
35226;BME280;21813;49.686;21.766;2022-10-31T09:36:34;98980.75;;;14.64;100.00
35226;BME280;21813;49.686;21.766;2022-10-31T09:39:00;98984.75;;;14.68;100.00
35226;BME280;21813;49.686;21.766;2022-10-31T09:41:33;98980.22;;;14.70;100.00
35226;BME280;21813;49.686;21.766;2022-10-31T09:44:14;98979.09;;;14.73;100.00
35226;BME280;21813;49.686;21.766;2022-10-31T09:51:50;98975.56;;;14.93;98.90
35226;BME280;21813;49.686;21.766;2022-10-31T09:57:04;98979.72;;;15.05;98.46
35226;BME280;21813;49.686;21.766;2022-10-31T09:59:46;98974.91;;;15.10;98.11
35226;BME280;21813;49.686;21.766;2022-10-31T10:21:48;98968.69;;;15.49;95.53
35226;BME280;21813;49.686;21.766;2022-10-31T10:26:53;98965.44;;;15.57;94.92
35226;BME280;21813;49.686;21.766;2022-10-31T10:29:37;98962.38;;;15.62;94.47
35226;BME280;21813;49.686;21.766;2022-10-31T10:32:51;98964.59;;;15.66;94.03
35226;BME280;21813;49.686;21.766;2022-10-31T10:38:29;98959.59;;;15.73;92.23
35226;BME280;21813;49.686;21.766;2022-10-31T10:40:57;98958.34;;;15.77;92.94
35226;BME280;21813;49.686;21.766;2022-10-31T10:43:35;98955.44;;;15.80;91.88
35226;BME280;21813;49.686;21.766;2022-10-31T10:47:58;98970.25;;;15.81;91.93
35226;BME280;21813;49.686;21.766;2022-10-31T10:50:37;98969.66;;;15.87;91.63
35226;BME280;21813;49.686;21.766;2022-10-31T10:56:14;98965.53;;;15.94;91.01
35226;BME280;21813;49.686;21.766;2022-10-31T10:58:41;98957.63;;;15.94;90.91
35226;BME280;21813;49.686;21.766;2022-10-31T11:01:12;98957.03;;;16.00;91.31
35226;BME280;21813;49.686;21.766;2022-10-31T11:03:39;98959.66;;;16.00;91.26
35226;BME280;21813;49.686;21.766;2022-10-31T11:06:19;98958.72;;;16.01;91.83
35226;BME280;21813;49.686;21.766;2022-10-31T11:08:50;98959.41;;;16.03;91.48
35226;BME280;21813;49.686;21.766;2022-10-31T11:13:45;98963.41;;;16.07;91.29
35226;BME280;21813;49.686;21.766;2022-10-31T11:16:28;98957.84;;;16.10;90.62
35226;BME280;21813;49.686;21.766;2022-10-31T11:19:18;98956.88;;;16.11;90.52
35226;BME280;21813;49.686;21.766;2022-10-31T11:21:48;98953.97;;;16.14;91.11
35226;BME280;21813;49.686;21.766;2022-10-31T11:24:19;98954.53;;;16.18;90.41
35226;BME280;21813;49.686;21.766;2022-10-31T11:26:48;98962.00;;;16.22;90.21
35226;BME280;21813;49.686;21.766;2022-10-31T11:29:23;98966.94;;;16.25;89.50
35226;BME280;21813;49.686;21.766;2022-10-31T11:31:53;98956.44;;;16.25;89.44
35226;BME280;21813;49.686;21.766;2022-10-31T11:36:49;98954.63;;;16.26;89.34
35226;BME280;21813;49.686;21.766;2022-10-31T11:39:22;98959.75;;;16.27;88.97
35226;BME280;21813;49.686;21.766;2022-10-31T11:41:50;98958.09;;;16.26;89.10
35226;BME280;21813;49.686;21.766;2022-10-31T11:44:29;98955.91;;;16.22;89.39
35226;BME280;21813;49.686;21.766;2022-10-31T11:47:00;98963.63;;;16.23;88.66
35226;BME280;21813;49.686;21.766;2022-10-31T11:49:39;98958.00;;;16.18;89.09
35226;BME280;21813;49.686;21.766;2022-10-31T11:52:16;98964.22;;;16.17;88.85
35226;BME280;21813;49.686;21.766;2022-10-31T11:54:50;98968.78;;;16.15;88.78
35226;BME280;21813;49.686;21.766;2022-10-31T11:57:23;98970.03;;;16.11;89.04
35226;BME280;21813;49.686;21.766;2022-10-31T11:59:59;98957.75;;;16.02;89.17
35226;BME280;21813;49.686;21.766;2022-10-31T12:02:28;98954.03;;;15.95;88.74
35226;BME280;21813;49.686;21.766;2022-10-31T12:05:00;98960.94;;;15.96;89.05
35226;BME280;21813;49.686;21.766;2022-10-31T12:07:31;98957.63;;;15.94;89.14
35226;BME280;21813;49.686;21.766;2022-10-31T12:09:57;98955.97;;;15.93;89.02
35226;BME280;21813;49.686;21.766;2022-10-31T12:15:29;98951.69;;;15.82;88.41
35226;BME280;21813;49.686;21.766;2022-10-31T12:20:57;98961.66;;;15.79;89.05
35226;BME280;21813;49.686;21.766;2022-10-31T12:31:42;98953.81;;;15.60;90.37
35226;BME280;21813;49.686;21.766;2022-10-31T12:43:40;98943.56;;;15.37;91.10
35226;BME280;21813;49.686;21.766;2022-10-31T12:46:16;98940.09;;;15.37;91.69
35226;BME280;21813;49.686;21.766;2022-10-31T12:57:31;98948.13;;;15.26;92.43
35226;BME280;21813;49.686;21.766;2022-10-31T13:00:18;98948.25;;;15.24;92.40
35226;BME280;21813;49.686;21.766;2022-10-31T13:08:07;98949.91;;;15.16;92.29
35226;BME280;21813;49.686;21.766;2022-10-31T13:10:44;98950.44;;;15.10;92.17
35226;BME280;21813;49.686;21.766;2022-10-31T13:13:17;98952.53;;;15.06;93.17
35226;BME280;21813;49.686;21.766;2022-10-31T13:15:59;98948.63;;;15.00;92.98
35226;BME280;21813;49.686;21.766;2022-10-31T13:18:33;98947.38;;;14.95;92.95
35226;BME280;21813;49.686;21.766;2022-10-31T13:21:05;98945.31;;;14.89;93.41
35226;BME280;21813;49.686;21.766;2022-10-31T13:23:36;98955.81;;;14.89;93.90
35226;BME280;21813;49.686;21.766;2022-10-31T13:26:13;98956.47;;;14.81;94.29
35226;BME280;21813;49.686;21.766;2022-10-31T13:29:02;98947.50;;;14.74;94.52
35226;BME280;21813;49.686;21.766;2022-10-31T13:31:30;98944.44;;;14.69;95.08
35226;BME280;21813;49.686;21.766;2022-10-31T13:34:01;98946.75;;;14.63;95.62
35226;BME280;21813;49.686;21.766;2022-10-31T13:36:39;98959.44;;;14.57;95.82
35226;BME280;21813;49.686;21.766;2022-10-31T13:39:14;98958.31;;;14.50;96.31
35226;BME280;21813;49.686;21.766;2022-10-31T13:42:14;98965.75;;;14.45;96.29
35226;BME280;21813;49.686;21.766;2022-10-31T13:44:44;98961.31;;;14.36;96.68
35226;BME280;21813;49.686;21.766;2022-10-31T13:47:26;98959.03;;;14.32;96.95
35226;BME280;21813;49.686;21.766;2022-10-31T13:50:05;98952.91;;;14.22;97.45
35226;BME280;21813;49.686;21.766;2022-10-31T14:03:18;98957.06;;;13.73;100.00
35226;BME280;21813;49.686;21.766;2022-10-31T14:05:53;98963.88;;;13.64;100.00
35226;BME280;21813;49.686;21.766;2022-10-31T14:08:23;98967.03;;;13.58;100.00
35226;BME280;21813;49.686;21.766;2022-10-31T14:10:51;98966.00;;;13.50;100.00
35226;BME280;21813;49.686;21.766;2022-10-31T14:13:26;98973.72;;;13.51;100.00
35226;BME280;21813;49.686;21.766;2022-10-31T14:16:01;98968.72;;;13.48;100.00
35226;BME280;21813;49.686;21.766;2022-10-31T14:18:29;98974.22;;;13.45;100.00
35226;BME280;21813;49.686;21.766;2022-10-31T14:23:46;98965.00;;;13.30;100.00
35226;BME280;21813;49.686;21.766;2022-10-31T14:29:20;98967.91;;;13.16;100.00
35226;BME280;21813;49.686;21.766;2022-10-31T14:32:04;98969.31;;;13.09;100.00
35226;BME280;21813;49.686;21.766;2022-10-31T14:34:57;98969.09;;;13.01;100.00
35226;BME280;21813;49.686;21.766;2022-10-31T14:37:48;98969.59;;;12.95;100.00
35226;BME280;21813;49.686;21.766;2022-10-31T14:41:08;98966.91;;;12.85;100.00
35226;BME280;21813;49.686;21.766;2022-10-31T14:46:54;98970.72;;;12.70;100.00
35226;BME280;21813;49.686;21.766;2022-10-31T14:51:51;98960.41;;;12.57;100.00
35226;BME280;21813;49.686;21.766;2022-10-31T14:54:23;98954.06;;;12.49;100.00
35226;BME280;21813;49.686;21.766;2022-10-31T14:56:56;98958.88;;;12.44;100.00
35226;BME280;21813;49.686;21.766;2022-10-31T14:59:28;98963.97;;;12.34;100.00
35226;BME280;21813;49.686;21.766;2022-10-31T15:02:02;98961.09;;;12.26;100.00
35226;BME280;21813;49.686;21.766;2022-10-31T15:04:34;98958.34;;;12.16;100.00
35226;BME280;21813;49.686;21.766;2022-10-31T15:07:17;98964.91;;;12.11;100.00
35226;BME280;21813;49.686;21.766;2022-10-31T15:09:43;98957.78;;;12.02;100.00
35226;BME280;21813;49.686;21.766;2022-10-31T15:14:50;98957.50;;;11.93;100.00
35226;BME280;21813;49.686;21.766;2022-10-31T15:17:17;98963.91;;;11.89;100.00
35226;BME280;21813;49.686;21.766;2022-10-31T15:19:43;98955.59;;;11.84;100.00
35226;BME280;21813;49.686;21.766;2022-10-31T15:22:22;98968.66;;;11.84;100.00
35226;BME280;21813;49.686;21.766;2022-10-31T15:24:49;98960.47;;;11.78;100.00
35226;BME280;21813;49.686;21.766;2022-10-31T15:27:23;98961.28;;;11.78;100.00
35226;BME280;21813;49.686;21.766;2022-10-31T15:29:51;98960.66;;;11.75;100.00
35226;BME280;21813;49.686;21.766;2022-10-31T15:32:26;98960.19;;;11.70;100.00
35226;BME280;21813;49.686;21.766;2022-10-31T15:34:54;98960.28;;;11.68;100.00
35226;BME280;21813;49.686;21.766;2022-10-31T15:37:22;98961.31;;;11.66;100.00
35226;BME280;21813;49.686;21.766;2022-10-31T15:39:54;98972.84;;;11.63;100.00
35226;BME280;21813;49.686;21.766;2022-10-31T15:42:30;98966.88;;;11.61;100.00
35226;BME280;21813;49.686;21.766;2022-10-31T15:45:16;98966.53;;;11.55;100.00
35226;BME280;21813;49.686;21.766;2022-10-31T15:48:22;98965.44;;;11.46;100.00
35226;BME280;21813;49.686;21.766;2022-10-31T15:51:32;98971.84;;;11.42;100.00
35226;BME280;21813;49.686;21.766;2022-10-31T15:54:03;98965.38;;;11.35;100.00
35226;BME280;21813;49.686;21.766;2022-10-31T15:56:30;98973.22;;;11.35;100.00
35226;BME280;21813;49.686;21.766;2022-10-31T15:59:00;98973.44;;;11.32;100.00
35226;BME280;21813;49.686;21.766;2022-10-31T16:01:30;98972.00;;;11.28;100.00
35226;BME280;21813;49.686;21.766;2022-10-31T16:06:25;98978.50;;;11.22;100.00
35226;BME280;21813;49.686;21.766;2022-10-31T16:08:53;98979.78;;;11.17;100.00
35226;BME280;21813;49.686;21.766;2022-10-31T16:11:35;98981.66;;;11.15;100.00
35226;BME280;21813;49.686;21.766;2022-10-31T16:14:14;98982.13;;;11.08;100.00
35226;BME280;21813;49.686;21.766;2022-10-31T16:16:43;98980.66;;;11.04;100.00
35226;BME280;21813;49.686;21.766;2022-10-31T16:19:20;98979.44;;;10.97;100.00
35226;BME280;21813;49.686;21.766;2022-10-31T16:21:49;98978.94;;;10.92;100.00
35226;BME280;21813;49.686;21.766;2022-10-31T16:24:31;98991.44;;;10.87;100.00
35226;BME280;21813;49.686;21.766;2022-10-31T16:27:19;98994.28;;;10.84;100.00
35226;BME280;21813;49.686;21.766;2022-10-31T16:29:48;99003.28;;;10.80;100.00
35226;BME280;21813;49.686;21.766;2022-10-31T16:32:35;98998.28;;;10.77;100.00
35226;BME280;21813;49.686;21.766;2022-10-31T16:37:37;99004.16;;;10.68;100.00
35226;BME280;21813;49.686;21.766;2022-10-31T16:40:04;99000.06;;;10.64;100.00
35226;BME280;21813;49.686;21.766;2022-10-31T16:42:30;99001.22;;;10.60;100.00
35226;BME280;21813;49.686;21.766;2022-10-31T16:44:56;99002.28;;;10.57;100.00
35226;BME280;21813;49.686;21.766;2022-10-31T16:47:22;99010.41;;;10.53;100.00
35226;BME280;21813;49.686;21.766;2022-10-31T16:49:48;99007.28;;;10.48;100.00